Time;durP1;ratioP1;P1;durP2;ratioP2;P2;SDS_P1;SDS_P2;PMS_P1;PMS_P2;Temp;Humidity;BMP_temperature;BMP_pressure;BME280_temperature;BME280_humidity;BME280_pressure;Samples;Min_cycle;Max_cycle;Signal;HPM_P1;HPM_P2
2021/12/26 00:02:15;;;;;;;5.65;4.18;;;;;;;4.01;100.00;97796.06;4973333;28;20106;-70
2021/12/26 00:04:41;;;;;;;2.22;2.08;;;;;;;4.01;100.00;97805.44;4973431;28;20587;-70
2021/12/26 00:07:06;;;;;;;3.22;2.90;;;;;;;3.98;100.00;97800.34;4975324;28;20035;-70
2021/12/26 00:09:32;;;;;;;2.80;2.60;;;;;;;4.12;100.00;97809.63;4973169;28;20019;-70
2021/12/26 00:11:58;;;;;;;2.08;1.85;;;;;;;4.08;100.00;97807.09;4973381;28;20034;-70
2021/12/26 00:14:24;;;;;;;2.47;2.28;;;;;;;4.02;100.00;97805.44;4973391;28;20035;-71
2021/12/26 00:16:50;;;;;;;2.83;1.83;;;;;;;4.04;100.00;97800.28;4972808;28;20399;-71
2021/12/26 00:19:15;;;;;;;2.05;1.95;;;;;;;3.98;100.00;97805.47;4972982;28;20019;-71
2021/12/26 00:21:41;;;;;;;2.85;2.65;;;;;;;3.95;100.00;97811.47;4973153;28;20046;-71
2021/12/26 00:24:06;;;;;;;5.88;3.67;;;;;;;3.92;100.00;97806.38;4973084;28;20568;-71
2021/12/26 00:26:32;;;;;;;2.55;2.35;;;;;;;4.03;100.00;97798.59;4971977;28;20054;-71
2021/12/26 00:28:59;;;;;;;2.35;2.13;;;;;;;4.15;100.00;97797.63;4973134;28;20019;-70
2021/12/26 00:31:25;;;;;;;2.05;1.95;;;;;;;4.09;100.00;97807.09;4973194;28;20039;-71
2021/12/26 00:33:50;;;;;;;2.03;1.92;;;;;;;4.03;100.00;97804.56;4973021;28;20042;-71
2021/12/26 00:36:15;;;;;;;2.92;2.75;;;;;;;4.04;100.00;97806.25;4975161;28;20439;-71
2021/12/26 00:38:41;;;;;;;2.80;2.60;;;;;;;4.15;100.00;97802.75;4972819;28;20022;-71
2021/12/26 00:41:07;;;;;;;1.77;1.65;;;;;;;4.30;100.00;97806.06;4973081;28;20788;-70
2021/12/26 00:43:32;;;;;;;2.33;2.15;;;;;;;4.30;100.00;97803.50;4972935;28;20031;-71
2021/12/26 00:45:58;;;;;;;2.88;2.67;;;;;;;4.41;100.00;97805.13;4972681;28;20106;-70
2021/12/26 00:48:24;;;;;;;1.65;1.55;;;;;;;4.30;100.00;97797.50;4972954;28;20050;-71
2021/12/26 00:50:50;;;;;;;3.17;2.03;;;;;;;4.30;100.00;97800.94;4972831;28;20042;-71
2021/12/26 00:53:15;;;;;;;1.98;1.88;;;;;;;4.46;100.00;97795.66;4973254;28;20431;-70
2021/12/26 00:55:41;;;;;;;1.83;1.63;;;;;;;4.36;100.00;97803.44;4972735;28;20109;-71
2021/12/26 00:58:07;;;;;;;2.78;2.47;;;;;;;4.33;100.00;97797.50;4972803;28;20077;-71
2021/12/26 08:01:56;;;;;;;2.22;2.08;;;;;;;4.18;100.00;97857.44;5289419;23;20458;-70
2021/12/26 08:04:21;;;;;;;2.55;2.15;;;;;;;4.23;100.00;97865.94;4954300;29;20039;-69
2021/12/26 08:06:47;;;;;;;7.05;2.72;;;;;;;4.35;100.00;97864.97;4962622;28;20019;-69
2021/12/26 08:09:12;;;;;;;6.85;3.35;;;;;;;4.30;100.00;97865.03;4965315;28;20027;-69
2021/12/26 08:11:37;;;;;;;1.83;1.73;;;;;;;4.47;100.00;97866.59;4973315;28;20494;-69
2021/12/26 08:14:03;;;;;;;1.75;1.67;;;;;;;4.51;100.00;97878.56;4973274;28;20027;-69
2021/12/26 08:16:28;;;;;;;6.18;2.38;;;;;;;4.43;100.00;97875.19;4973216;28;20503;-70
2021/12/26 08:18:55;;;;;;;4.53;2.00;;;;;;;4.54;100.00;97873.38;4973994;28;20046;-69
2021/12/26 08:21:20;;;;;;;2.75;2.22;;;;;;;4.61;100.00;97873.31;4973177;28;20027;-69
2021/12/26 08:23:46;;;;;;;4.60;1.88;;;;;;;4.64;100.00;97869.84;4973218;28;20041;-69
2021/12/26 08:26:12;;;;;;;2.50;2.05;;;;;;;4.61;100.00;97875.03;4973036;28;20027;-69
2021/12/26 08:28:37;;;;;;;1.98;1.88;;;;;;;4.59;100.00;97881.88;4964928;28;20019;-69
2021/12/26 08:31:03;;;;;;;1.58;1.48;;;;;;;4.64;100.00;97870.75;4970896;28;20034;-69
2021/12/26 08:33:28;;;;;;;1.88;1.77;;;;;;;4.77;100.00;97871.44;4973115;28;20023;-69
2021/12/26 08:35:54;;;;;;;1.73;1.65;;;;;;;4.64;100.00;97869.84;4972772;28;20022;-69
2021/12/26 08:38:21;;;;;;;1.17;1.02;;;;;;;4.76;100.00;97874.91;4964982;28;20015;-69
2021/12/26 08:40:48;;;;;;;1.60;1.48;;;;;;;4.81;100.00;97874.84;4973385;28;20400;-69
2021/12/26 08:43:14;;;;;;;3.90;2.10;;;;;;;4.67;100.00;97869.00;4977385;28;20464;-69
2021/12/26 08:45:39;;;;;;;3.58;2.33;;;;;;;4.58;100.00;97875.06;4976871;28;20495;-69
2021/12/26 08:48:05;;;;;;;2.83;1.98;;;;;;;4.63;100.00;97868.16;4976699;28;20023;-69
2021/12/26 08:50:30;;;;;;;1.48;1.38;;;;;;;4.70;100.00;97869.81;4976766;28;20045;-69
2021/12/26 08:52:56;;;;;;;2.67;2.33;;;;;;;4.75;100.00;97872.34;4976758;28;20018;-69
2021/12/26 08:55:23;;;;;;;2.53;2.00;;;;;;;4.77;100.00;97870.59;4976798;28;20034;-69
2021/12/26 08:57:53;;;;;;;2.10;1.52;;;;;;;4.75;100.00;97872.34;4974046;28;20022;-69
2021/12/26 09:00:21;;;;;;;2.08;1.58;;;;;;;4.74;100.00;97874.06;4968324;28;20026;-69
2021/12/26 09:02:47;;;;;;;1.17;1.17;;;;;;;4.75;100.00;97878.31;4976606;28;20027;-69
2021/12/26 09:05:13;;;;;;;2.85;2.17;;;;;;;4.90;100.00;97873.03;4976598;28;20162;-69
2021/12/26 09:07:39;;;;;;;1.20;1.20;;;;;;;4.96;100.00;97871.28;4970263;28;20030;-69
2021/12/26 09:10:06;;;;;;;2.35;2.15;;;;;;;5.05;100.00;97871.19;4974551;28;20039;-69
2021/12/26 09:12:31;;;;;;;3.88;2.33;;;;;;;5.07;100.00;97865.16;4976353;28;20106;-69
2021/12/26 09:14:57;;;;;;;2.92;2.55;;;;;;;5.22;100.00;97876.13;4976629;28;20102;-69
2021/12/26 09:17:22;;;;;;;1.52;1.08;;;;;;;5.05;100.00;97881.44;4976281;28;20100;-69
2021/12/26 09:19:48;;;;;;;0.95;0.95;;;;;;;5.26;100.00;97876.06;4976254;28;20019;-69
2021/12/26 09:22:15;;;;;;;1.83;1.73;;;;;;;5.09;100.00;97889.09;4976450;28;20054;-69
2021/12/26 09:24:42;;;;;;;6.32;1.33;;;;;;;5.26;100.00;97888.91;4976250;28;20085;-69
2021/12/26 09:27:08;;;;;;;7.57;2.05;;;;;;;5.38;100.00;97891.34;4973562;28;20030;-69
2021/12/26 09:29:33;;;;;;;1.55;1.52;;;;;;;5.62;100.00;97885.06;4961380;28;20042;-69
2021/12/26 09:32:02;;;;;;;1.25;1.05;;;;;;;5.97;100.00;97890.63;4956663;28;20110;-69
2021/12/26 09:34:29;;;;;;;2.10;1.90;;;;;;;6.00;98.40;97899.16;4956671;28;20028;-69
2021/12/26 09:36:55;;;;;;;2.35;1.25;;;;;;;5.82;97.97;97891.66;4967560;28;20547;-69
2021/12/26 09:39:21;;;;;;;1.08;0.90;;;;;;;5.79;98.18;97897.69;4968097;28;20019;-69
2021/12/26 09:41:47;;;;;;;1.38;1.27;;;;;;;5.65;99.10;97900.44;4975878;28;20034;-69
2021/12/26 09:44:12;;;;;;;1.52;1.52;;;;;;;5.65;100.00;97904.72;4975939;28;20476;-69
2021/12/26 09:46:38;;;;;;;2.35;2.15;;;;;;;5.76;99.15;97895.19;4975810;28;20031;-69
2021/12/26 09:49:04;;;;;;;1.83;1.73;;;;;;;5.71;98.51;97894.38;4975747;28;20373;-69
2021/12/26 09:51:30;;;;;;;3.22;1.35;;;;;;;5.70;98.75;97902.09;4975243;28;20109;-69
2021/12/26 09:53:55;;;;;;;1.60;1.50;;;;;;;5.61;99.85;97893.66;4975411;28;20030;-69
2021/12/26 09:56:20;;;;;;;0.90;0.90;;;;;;;5.54;100.00;97891.16;4975438;28;20025;-69
2021/12/26 09:59:00;;;;;;;2.25;1.67;;;;;;;5.62;99.54;97895.34;4966339;28;20106;-69
2021/12/26 10:01:37;;;;;;;1.38;1.38;;;;;;;5.77;98.08;97899.44;4936819;29;20058;-69
2021/12/26 10:04:14;;;;;;;1.13;1.00;;;;;;;5.78;96.20;97890.84;4937066;29;20032;-69
2021/12/26 10:06:39;;;;;;;1.98;1.52;;;;;;;5.85;97.24;97887.34;4954860;28;20379;-72
2021/12/26 10:09:10;;;;;;;2.25;1.45;;;;;;;5.97;96.52;97877.78;4973844;28;20094;-69
2021/12/26 10:11:42;;;;;;;1.92;1.83;;;;;;;6.13;95.42;97877.53;4956061;28;20031;-69
2021/12/26 10:14:11;;;;;;;1.52;1.45;;;;;;;5.98;96.72;97866.63;4956172;28;20058;-69
2021/12/26 10:16:46;;;;;;;1.60;1.50;;;;;;;6.00;95.54;97864.91;4955594;28;20023;-74
2021/12/26 10:19:12;;;;;;;1.67;1.40;;;;;;;6.12;95.59;97862.13;4956004;28;20027;-68
2021/12/26 10:21:40;;;;;;;1.35;1.30;;;;;;;6.18;95.88;97857.72;4955695;28;20042;-68
2021/12/26 10:24:21;;;;;;;1.15;1.10;;;;;;;5.92;94.30;97852.97;4955884;28;20023;-68
2021/12/26 10:26:54;;;;;;;5.68;2.83;;;;;;;5.97;94.96;97859.78;4955763;28;20388;-69
2021/12/26 10:29:22;;;;;;;2.53;2.30;;;;;;;6.22;94.93;97850.81;4965208;28;20073;-68
2021/12/26 10:31:58;;;;;;;6.75;2.63;;;;;;;6.16;94.75;97858.63;4973625;28;20042;-68
2021/12/26 10:34:33;;;;;;;1.40;1.35;;;;;;;6.11;94.85;97858.72;4975248;28;20377;-68
2021/12/26 10:37:01;;;;;;;2.53;2.25;;;;;;;6.18;95.92;97860.31;4974213;28;20038;-68
2021/12/26 10:39:40;;;;;;;1.88;1.30;;;;;;;6.15;95.79;97855.22;4967803;28;20025;-68
2021/12/26 10:42:08;;;;;;;0.60;0.60;;;;;;;5.96;94.73;97847.81;4974716;28;20027;-68
2021/12/26 10:44:43;;;;;;;0.82;0.82;;;;;;;5.96;95.13;97852.94;4975037;28;20034;-68
2021/12/26 10:47:16;;;;;;;0.70;0.70;;;;;;;6.20;95.57;97841.44;4973348;28;20054;-68
2021/12/26 10:50:01;;;;;;;1.92;1.83;;;;;;;6.54;94.65;97836.59;4974731;28;20432;-68
2021/12/26 10:52:33;;;;;;;2.25;2.08;;;;;;;6.73;90.75;97827.69;4974607;28;20114;-68
2021/12/26 10:55:08;;;;;;;1.30;1.30;;;;;;;7.69;88.07;97835.22;4974595;28;20361;-68
2021/12/26 10:57:52;;;;;;;7.47;1.10;;;;;;;7.76;84.59;97833.34;4972076;28;20029;-68
2021/12/26 11:00:26;;;;;;;1.00;1.00;;;;;;;7.59;85.17;97836.28;4966275;28;20026;-68
2021/12/26 11:03:01;;;;;;;2.03;1.33;;;;;;;7.30;87.57;97835.19;4974348;28;20018;-69
2021/12/26 11:05:35;;;;;;;1.95;1.23;;;;;;;7.27;89.75;97832.66;4974327;28;20029;-68
2021/12/26 11:08:06;;;;;;;1.83;1.70;;;;;;;6.64;90.93;97838.13;4960904;28;20488;-68
2021/12/26 11:10:33;;;;;;;1.33;1.27;;;;;;;6.65;91.81;97835.53;4974156;28;20061;-68
2021/12/26 11:13:02;;;;;;;1.38;1.27;;;;;;;6.65;92.72;97829.53;4974243;28;20550;-69
2021/12/26 11:15:30;;;;;;;2.38;1.20;;;;;;;6.11;92.90;97837.28;4973997;28;20037;-68
2021/12/26 11:18:18;;;;;;;1.10;1.10;;;;;;;6.07;95.09;97833.91;5069794;28;20160;-68
2021/12/26 11:20:49;;;;;;;1.08;1.08;;;;;;;6.05;96.59;97837.38;5069152;28;20608;-67
2021/12/26 11:23:20;;;;;;;0.63;0.63;;;;;;;6.17;95.23;97832.03;5069474;28;20074;-69
2021/12/26 11:25:49;;;;;;;1.20;1.15;;;;;;;6.12;95.35;97838.97;5068881;28;20028;-68
2021/12/26 11:28:17;;;;;;;2.08;1.88;;;;;;;6.00;96.09;97839.19;5071239;28;20048;-68
2021/12/26 11:30:44;;;;;;;2.35;1.25;;;;;;;5.93;97.09;97823.81;5076717;28;20037;-68
2021/12/26 11:33:11;;;;;;;1.92;1.67;;;;;;;6.13;96.63;97831.22;5081540;28;20024;-70
2021/12/26 11:35:39;;;;;;;0.90;0.90;;;;;;;5.99;95.72;97833.16;5068105;28;20028;-70
2021/12/26 11:38:09;;;;;;;3.90;1.13;;;;;;;6.12;97.08;97829.53;5066637;28;20024;-70
2021/12/26 11:40:36;;;;;;;1.85;1.75;;;;;;;6.25;96.90;97825.06;5068899;28;20028;-70
2021/12/26 11:43:23;;;;;;;1.00;1.00;;;;;;;6.28;96.64;97819.84;5068983;28;20040;-70
2021/12/26 11:46:09;;;;;;;1.90;1.73;;;;;;;6.21;95.98;97812.28;5068857;28;20017;-70
2021/12/26 11:48:46;;;;;;;3.10;1.55;;;;;;;6.29;95.81;97813.84;5068734;28;20028;-70
2021/12/26 11:51:14;;;;;;;1.73;1.63;;;;;;;6.27;96.15;97813.00;5068992;28;20021;-70
2021/12/26 11:54:07;;;;;;;1.27;1.17;;;;;;;6.30;96.06;97806.97;5068424;28;20020;-70
2021/12/26 11:56:48;;;;;;;1.33;1.23;;;;;;;6.37;96.56;97796.53;5058903;28;20144;-70
2021/12/26 11:59:47;;;;;;;0.77;0.77;;;;;;;6.45;95.72;97796.44;5028634;28;20041;-70
2021/12/26 12:02:13;;;;;;;1.35;1.25;;;;;;;6.63;94.25;97795.25;5028719;28;20429;-70
2021/12/26 12:04:38;;;;;;;0.80;0.80;;;;;;;6.76;93.31;97796.72;5027367;28;20029;-70
2021/12/26 12:07:08;;;;;;;0.88;0.88;;;;;;;7.00;92.60;97789.41;5028974;28;20033;-70
2021/12/26 12:09:38;;;;;;;;;;;;;;;7.52;91.55;97788.34;5027697;28;20075;-70
2021/12/26 12:12:12;;;;;;;1.55;1.42;;;;;;;7.80;89.50;97784.25;5028751;28;20317;-70
2021/12/26 12:14:54;;;;;;;1.52;1.42;;;;;;;7.76;87.43;97782.63;5028299;28;20091;-70
2021/12/26 12:17:23;;;;;;;0.95;0.95;;;;;;;7.90;87.67;97788.31;5028273;28;20117;-70
2021/12/26 12:20:09;;;;;;;0.68;0.57;;;;;;;7.67;87.93;97782.84;5028419;28;20076;-70
2021/12/26 12:22:36;;;;;;;1.30;1.30;;;;;;;7.41;89.12;97792.00;5028372;28;20129;-70
2021/12/26 12:25:33;;;;;;;1.73;1.52;;;;;;;7.71;88.02;97789.63;5028596;28;20032;-70
2021/12/26 12:28:04;;;;;;;1.55;1.20;;;;;;;7.53;89.20;97782.28;5013151;28;20033;-70
2021/12/26 12:30:30;;;;;;;1.65;0.90;;;;;;;7.64;89.12;97782.88;5014767;28;20083;-70
2021/12/26 12:33:13;;;;;;;0.85;0.85;;;;;;;8.03;85.60;97780.31;5014968;28;20309;-70
2021/12/26 12:35:57;;;;;;;1.45;1.35;;;;;;;8.19;85.01;97781.63;5013703;28;20505;-70
2021/12/26 12:38:25;;;;;;;1.30;1.20;;;;;;;8.28;83.55;97783.13;5007192;28;20030;-70
2021/12/26 12:40:51;;;;;;;1.35;0.98;;;;;;;8.06;84.91;97780.22;5014724;28;20032;-70
2021/12/26 12:43:22;;;;;;;2.00;0.68;;;;;;;8.04;85.25;97782.00;5014790;28;20021;-70
2021/12/26 12:45:54;;;;;;;9.15;2.22;;;;;;;7.88;85.58;97787.50;5013468;28;20029;-70
2021/12/26 12:48:38;;;;;;;1.25;1.10;;;;;;;7.53;87.42;97795.16;5014939;28;20040;-70
2021/12/26 12:51:15;;;;;;;1.02;1.02;;;;;;;7.42;88.86;97788.53;5014572;28;20077;-69
2021/12/26 12:53:40;;;;;;;3.50;1.23;;;;;;;7.47;88.59;97789.28;5014573;28;20494;-70
2021/12/26 12:56:29;;;;;;;1.55;1.35;;;;;;;7.63;88.63;97782.03;5014380;28;20026;-70
2021/12/26 12:59:33;;;;;;;1.13;1.13;;;;;;;7.85;88.72;97786.72;5003749;28;20028;-70
2021/12/26 13:02:09;;;;;;;1.17;1.17;;;;;;;7.42;90.26;97790.25;4993082;28;20045;-70
2021/12/26 13:04:37;;;;;;;1.00;1.00;;;;;;;7.43;90.74;97790.22;5014635;28;20156;-70
2021/12/26 13:07:04;;;;;;;1.50;1.50;;;;;;;7.48;90.09;97788.38;5014077;28;20053;-70
2021/12/26 13:09:32;;;;;;;2.10;2.00;;;;;;;7.52;89.86;97785.75;5014274;28;20036;-70
2021/12/26 13:12:06;;;;;;;2.13;1.95;;;;;;;7.25;90.04;97785.44;5014074;28;20030;-71
2021/12/26 13:14:36;;;;;;;2.00;1.23;;;;;;;7.23;91.02;97787.22;5014473;28;20029;-72
2021/12/26 13:17:02;;;;;;;4.13;0.77;;;;;;;7.11;90.72;97798.63;5014015;28;20039;-72
2021/12/26 13:19:27;;;;;;;0.50;0.50;;;;;;;7.15;91.86;97789.09;5014411;28;20034;-72
2021/12/26 13:21:56;;;;;;;2.08;1.95;;;;;;;7.19;91.66;97790.72;5014316;28;20487;-72
2021/12/26 13:24:33;;;;;;;1.83;0.90;;;;;;;7.22;92.13;97790.69;5014079;28;20483;-72
2021/12/26 13:26:59;;;;;;;1.27;1.10;;;;;;;7.35;92.38;97776.66;5010926;28;20535;-72
2021/12/26 13:29:24;;;;;;;1.25;1.15;;;;;;;7.31;91.75;97790.50;4998474;28;20148;-72
2021/12/26 13:31:50;;;;;;;1.63;1.52;;;;;;;7.39;92.12;97778.28;5013757;28;20398;-72
2021/12/26 13:34:15;;;;;;;2.88;1.67;;;;;;;7.47;92.54;97785.84;5013848;28;20037;-72
2021/12/26 13:36:40;;;;;;;4.05;2.03;;;;;;;7.42;92.83;97788.53;5013751;28;20276;-70
2021/12/26 13:39:19;;;;;;;6.78;1.95;;;;;;;7.36;91.93;97788.66;5012225;28;20529;-71
2021/12/26 13:41:46;;;;;;;1.13;1.13;;;;;;;7.18;92.27;97789.03;5013258;28;20040;-71
2021/12/26 13:44:13;;;;;;;1.95;1.70;;;;;;;7.34;92.26;97779.25;5013812;28;20026;-71
2021/12/26 13:46:38;;;;;;;0.98;0.85;;;;;;;7.33;92.89;97783.56;5013556;28;20117;-71
2021/12/26 13:49:08;;;;;;;1.50;1.27;;;;;;;7.33;91.12;97775.84;5013935;28;20113;-71
2021/12/26 13:51:36;;;;;;;0.88;0.88;;;;;;;7.36;90.64;97783.50;5014030;28;20030;-71
2021/12/26 13:54:07;;;;;;;2.13;1.40;;;;;;;7.56;90.93;97779.66;5013570;28;20038;-71
2021/12/26 13:56:51;;;;;;;1.48;1.38;;;;;;;7.36;90.86;97783.50;5013700;28;20056;-71
2021/12/26 13:59:35;;;;;;;1.30;1.30;;;;;;;7.29;91.01;97775.94;5004775;28;20026;-71
2021/12/26 14:02:18;;;;;;;3.13;1.38;;;;;;;7.37;92.06;97789.50;5013159;28;20104;-71
2021/12/26 14:04:45;;;;;;;1.10;1.00;;;;;;;7.26;92.98;97782.00;5013192;28;20117;-71
2021/12/26 14:07:14;;;;;;;1.13;0.82;;;;;;;7.31;92.97;97780.19;5013184;28;20057;-71
2021/12/26 14:09:42;;;;;;;0.98;0.93;;;;;;;7.24;93.76;97773.44;5013490;28;20033;-71
2021/12/26 14:12:24;;;;;;;1.50;1.40;;;;;;;7.23;93.10;97779.47;5012996;28;20100;-71
2021/12/26 14:14:49;;;;;;;1.73;1.63;;;;;;;7.25;94.40;97779.44;5013086;28;20102;-71
2021/12/26 14:17:14;;;;;;;0.90;0.85;;;;;;;7.30;94.33;97782.78;5011583;28;20118;-72
2021/12/26 14:19:40;;;;;;;1.45;1.33;;;;;;;7.30;93.83;97775.03;5013141;28;20131;-71
2021/12/26 14:22:05;;;;;;;1.27;1.27;;;;;;;7.24;93.24;97783.75;5012941;28;20566;-71
2021/12/26 14:24:31;;;;;;;1.15;1.15;;;;;;;7.27;93.76;97783.69;5013022;28;20495;-71
2021/12/26 14:26:57;;;;;;;0.80;0.80;;;;;;;7.27;93.99;97794.00;5008778;28;20037;-71
2021/12/26 14:29:24;;;;;;;0.80;0.80;;;;;;;7.25;93.61;97785.44;5005288;28;20382;-71
2021/12/26 14:31:53;;;;;;;1.63;1.52;;;;;;;7.23;94.17;97787.22;5012740;28;20022;-71
2021/12/26 14:34:25;;;;;;;1.20;1.20;;;;;;;7.10;94.84;97785.75;5012707;28;20022;-71
2021/12/26 14:36:58;;;;;;;3.55;2.45;;;;;;;7.11;94.44;97779.75;5012388;28;20018;-70
2021/12/26 14:39:32;;;;;;;1.30;1.23;;;;;;;7.08;95.07;97787.53;5012615;28;20040;-70
2021/12/26 14:41:58;;;;;;;1.60;1.50;;;;;;;7.10;95.38;97778.03;5012587;28;20119;-70
2021/12/26 14:44:27;;;;;;;0.93;0.93;;;;;;;7.08;95.54;97780.66;5012538;28;20448;-70
2021/12/26 14:47:11;;;;;;;1.40;1.40;;;;;;;7.05;95.66;97778.13;5012284;28;20096;-70
2021/12/26 14:49:48;;;;;;;0.82;0.82;;;;;;;7.00;95.17;97776.53;5012490;28;20552;-70
2021/12/26 14:52:17;;;;;;;1.05;1.00;;;;;;;6.90;94.71;97768.97;4995016;28;20083;-70
2021/12/26 14:54:48;;;;;;;1.85;1.48;;;;;;;6.85;95.61;97775.94;5012668;28;20044;-70
2021/12/26 14:57:28;;;;;;;1.92;1.65;;;;;;;6.80;94.70;97777.75;5012128;28;20041;-71
2021/12/26 14:59:56;;;;;;;1.00;1.00;;;;;;;6.76;96.04;97770.13;5012233;28;20036;-69
2021/12/26 15:02:22;;;;;;;1.88;1.77;;;;;;;6.73;96.63;97775.34;5012109;28;20026;-71
2021/12/26 15:04:51;;;;;;;2.35;1.95;;;;;;;6.70;96.83;97782.22;5012217;28;20049;-71
2021/12/26 15:07:20;;;;;;;1.73;1.63;;;;;;;6.62;96.34;97772.94;5011903;28;20025;-69
2021/12/26 15:10:00;;;;;;;0.77;0.77;;;;;;;6.61;96.57;97778.97;5012111;28;20025;-68
2021/12/26 15:12:35;;;;;;;1.02;1.02;;;;;;;6.53;97.30;97773.16;5012076;28;20030;-68
2021/12/26 15:15:19;;;;;;;0.90;0.90;;;;;;;6.48;97.51;97772.34;5012131;28;20033;-71
2021/12/26 15:17:54;;;;;;;1.40;1.30;;;;;;;6.41;97.25;97769.91;5011669;28;20454;-70
2021/12/26 15:20:30;;;;;;;2.03;1.92;;;;;;;6.33;98.37;97766.59;5012140;28;20030;-72
2021/12/26 15:23:00;;;;;;;1.38;1.27;;;;;;;6.31;97.85;97773.50;5012026;28;20434;-71
2021/12/26 15:25:28;;;;;;;1.27;1.27;;;;;;;6.27;98.79;97761.56;5011998;28;20029;-71
2021/12/26 15:28:21;;;;;;;2.88;1.90;;;;;;;6.21;98.44;97766.81;5009303;28;20068;-71
2021/12/26 15:31:17;;;;;;;0.80;0.80;;;;;;;6.16;99.19;97768.63;5007792;28;20038;-73
2021/12/26 15:33:47;;;;;;;3.20;1.27;;;;;;;6.13;99.17;97766.09;5012008;28;20068;-73
2021/12/26 15:36:20;;;;;;;1.42;1.23;;;;;;;6.19;98.50;97778.88;5007174;28;20041;-69
2021/12/26 15:38:48;;;;;;;1.50;1.40;;;;;;;6.13;99.42;97768.66;5011853;28;20026;-69
2021/12/26 15:41:23;;;;;;;1.20;1.10;;;;;;;6.13;99.82;97768.66;5011811;28;20022;-68
2021/12/26 15:43:49;;;;;;;1.13;1.13;;;;;;;6.15;100.00;97766.94;5011556;28;20065;-68
2021/12/26 15:46:14;;;;;;;1.85;1.75;;;;;;;6.10;100.00;97772.16;5011539;28;20061;-69
2021/12/26 15:48:39;;;;;;;1.52;1.42;;;;;;;6.21;100.00;97771.97;5011683;28;20535;-68
2021/12/26 15:51:05;;;;;;;3.65;1.40;;;;;;;6.16;100.00;97778.91;5011458;28;20452;-70
2021/12/26 15:53:30;;;;;;;0.70;0.70;;;;;;;6.13;100.00;97772.09;5011790;28;20022;-71
2021/12/26 15:55:56;;;;;;;0.90;0.90;;;;;;;6.07;100.00;97771.34;5011597;28;20022;-71
2021/12/26 15:58:21;;;;;;;0.80;0.77;;;;;;;6.08;100.00;97770.47;5009108;28;20057;-71
2021/12/26 16:00:47;;;;;;;1.70;1.60;;;;;;;6.08;100.00;97773.03;5011505;28;20120;-71
2021/12/26 16:03:12;;;;;;;2.78;1.85;;;;;;;5.90;100.00;97780.16;5012651;28;20076;-70
2021/12/26 16:05:38;;;;;;;1.63;1.52;;;;;;;5.87;100.00;97782.75;5014306;28;20109;-76
2021/12/26 16:08:04;;;;;;;0.90;0.90;;;;;;;5.83;100.00;97786.25;5012838;28;20109;-76
2021/12/26 16:10:29;;;;;;;1.60;1.50;;;;;;;5.79;100.00;97787.16;5015142;28;20121;-70
2021/12/26 16:12:55;;;;;;;8.52;1.38;;;;;;;5.80;100.00;97788.88;5015412;28;20022;-70
2021/12/26 16:15:20;;;;;;;0.40;0.40;;;;;;;5.81;100.00;97790.56;5015144;28;20026;-78
2021/12/26 16:17:45;;;;;;;2.30;1.48;;;;;;;5.76;100.00;97789.78;5015022;28;20029;-75
2021/12/26 16:20:12;;;;;;;4.18;1.50;;;;;;;5.75;100.00;97782.94;5015109;28;20475;-72
2021/12/26 16:22:42;;;;;;;1.65;1.55;;;;;;;5.74;100.00;97791.53;5015319;28;20037;-70
2021/12/26 16:25:11;;;;;;;;;;;;;;;5.66;100.00;97791.66;5015500;28;20323;-70
2021/12/26 16:27:38;;;;;;;0.80;0.80;;;;;;;5.65;100.00;97791.66;5012416;28;19957;-74
2021/12/26 16:30:05;;;;;;;2.28;2.08;;;;;;;5.63;100.00;97793.41;5013653;28;20044;-74
2021/12/26 16:32:31;;;;;;;1.92;1.77;;;;;;;5.65;100.00;97797.63;5014332;28;20141;-74
2021/12/26 16:34:56;;;;;;;1.73;1.58;;;;;;;5.63;100.00;97788.28;5014670;28;20108;-74
2021/12/26 16:37:21;;;;;;;1.73;1.63;;;;;;;5.62;100.00;97786.56;5014266;28;20030;-74
2021/12/26 16:39:47;;;;;;;7.03;3.30;;;;;;;5.63;100.00;97788.28;5014589;28;20049;-70
2021/12/26 16:42:12;;;;;;;3.03;2.38;;;;;;;5.64;100.00;97789.97;5014533;28;20022;-73
2021/12/26 16:44:37;;;;;;;3.33;3.13;;;;;;;5.61;100.00;97790.03;5014578;28;20029;-71
2021/12/26 16:47:03;;;;;;;1.40;1.30;;;;;;;5.55;100.00;97779.81;5014381;28;20105;-71
2021/12/26 16:49:28;;;;;;;1.15;1.10;;;;;;;5.52;100.00;97788.44;5014668;28;20398;-71
2021/12/26 16:51:53;;;;;;;1.42;1.35;;;;;;;5.52;100.00;97790.16;5014403;28;20390;-72
2021/12/26 16:54:25;;;;;;;4.18;2.22;;;;;;;5.55;100.00;97790.94;5014414;28;20036;-72
2021/12/26 16:56:51;;;;;;;1.90;1.80;;;;;;;5.54;100.00;97790.97;5011143;28;20033;-72
2021/12/26 16:59:17;;;;;;;2.10;1.83;;;;;;;5.55;100.00;97790.09;5013647;28;20097;-71
2021/12/26 17:01:43;;;;;;;2.63;1.77;;;;;;;5.54;100.00;97793.53;5014420;28;20025;-72
2021/12/26 17:04:08;;;;;;;2.10;1.85;;;;;;;5.52;100.00;97800.44;5014314;28;20385;-72
2021/12/26 17:06:34;;;;;;;5.88;2.42;;;;;;;5.49;100.00;97796.16;5010727;28;20529;-71
2021/12/26 17:08:59;;;;;;;2.03;1.90;;;;;;;5.46;100.00;97796.19;5014035;28;20045;-72
2021/12/26 17:11:24;;;;;;;1.30;1.30;;;;;;;5.42;100.00;97799.69;5014082;28;20390;-72
2021/12/26 17:13:50;;;;;;;2.72;1.73;;;;;;;5.39;100.00;97795.44;5013876;28;20111;-71
2021/12/26 17:16:15;;;;;;;2.08;1.98;;;;;;;5.37;100.00;97797.19;5013649;28;20041;-72
2021/12/26 17:18:40;;;;;;;2.80;2.60;;;;;;;5.34;100.00;97801.50;5014012;28;20053;-71
2021/12/26 17:21:06;;;;;;;2.92;2.72;;;;;;;5.34;100.00;97793.81;5013894;28;20509;-72
2021/12/26 17:23:31;;;;;;;3.17;2.75;;;;;;;5.36;100.00;97800.59;5013936;28;20467;-69
2021/12/26 17:25:57;;;;;;;4.10;2.20;;;;;;;5.31;100.00;97792.13;5013801;28;20042;-69
2021/12/26 17:28:22;;;;;;;1.80;1.73;;;;;;;5.32;100.00;97798.97;5010977;28;20053;-70
2021/12/26 17:30:47;;;;;;;9.43;2.70;;;;;;;5.25;100.00;97792.19;5013970;28;20029;-71
2021/12/26 17:33:13;;;;;;;1.88;1.40;;;;;;;5.22;100.00;97797.41;5036152;23;20022;-72
2021/12/26 17:35:38;;;;;;;2.72;2.03;;;;;;;5.18;100.00;97800.88;4994212;28;20038;-72
2021/12/26 17:38:05;;;;;;;3.83;2.80;;;;;;;5.19;100.00;97792.28;4993644;28;20121;-73
2021/12/26 17:40:30;;;;;;;2.17;1.98;;;;;;;5.13;100.00;97797.50;4994104;28;20027;-73
2021/12/26 17:42:56;;;;;;;4.75;1.85;;;;;;;5.11;100.00;97799.22;4994030;28;20471;-73
2021/12/26 17:45:21;;;;;;;2.08;1.90;;;;;;;5.10;100.00;97798.38;4993933;28;20150;-73
2021/12/26 17:47:47;;;;;;;2.25;1.77;;;;;;;5.11;100.00;97799.22;4993953;28;20030;-73
2021/12/26 17:50:13;;;;;;;2.53;2.38;;;;;;;5.06;100.00;97801.00;4993783;28;20038;-73
2021/12/26 17:52:39;;;;;;;3.17;1.95;;;;;;;5.03;100.00;97795.88;4993968;28;20471;-73
2021/12/26 17:55:06;;;;;;;2.08;1.95;;;;;;;4.98;100.00;97797.66;4993785;28;20045;-73
2021/12/26 17:57:33;;;;;;;3.92;1.83;;;;;;;4.97;100.00;97795.97;4993402;28;20105;-73
2021/12/26 17:59:59;;;;;;;2.60;2.13;;;;;;;4.92;100.00;97787.47;4993630;28;20041;-73
2021/12/26 18:02:24;;;;;;;1.92;1.83;;;;;;;4.86;100.00;97791.81;4993792;28;20097;-73
2021/12/26 18:04:49;;;;;;;6.10;2.50;;;;;;;4.85;100.00;97797.81;4993483;28;20025;-73
2021/12/26 18:07:15;;;;;;;1.33;1.23;;;;;;;4.82;100.00;97790.13;4993200;28;20037;-72
2021/12/26 18:09:40;;;;;;;1.77;1.67;;;;;;;4.83;100.00;97788.41;4993400;28;20057;-72
2021/12/26 18:12:06;;;;;;;2.03;1.92;;;;;;;4.83;100.00;97793.56;4993408;28;20034;-72
2021/12/26 18:14:33;;;;;;;3.28;2.92;;;;;;;4.80;100.00;97781.63;4993239;28;20069;-72
2021/12/26 18:16:59;;;;;;;2.10;2.00;;;;;;;4.84;100.00;97788.41;4993264;28;20052;-73
2021/12/26 18:19:24;;;;;;;3.50;2.22;;;;;;;4.81;100.00;97785.88;4993325;28;20026;-72
2021/12/26 18:21:49;;;;;;;2.00;1.90;;;;;;;4.77;100.00;97776.50;4993161;28;20030;-73
2021/12/26 18:24:15;;;;;;;1.55;1.52;;;;;;;4.77;100.00;97778.22;4993065;28;20022;-73
2021/12/26 18:26:40;;;;;;;1.60;1.55;;;;;;;4.77;100.00;97783.38;4992313;28;20023;-72
2021/12/26 18:29:06;;;;;;;1.70;1.63;;;;;;;4.74;100.00;97780.81;4992958;28;20490;-73
2021/12/26 18:31:32;;;;;;;3.28;1.75;;;;;;;4.74;100.00;97783.38;4992925;28;20030;-73
2021/12/26 18:34:01;;;;;;;1.58;1.55;;;;;;;4.73;100.00;97782.53;4992880;28;20038;-73
2021/12/26 18:36:27;;;;;;;1.30;1.30;;;;;;;4.81;100.00;97785.03;4992593;28;20056;-73
2021/12/26 18:38:53;;;;;;;1.92;1.83;;;;;;;4.92;100.00;97782.34;4992869;28;20030;-73
2021/12/26 18:41:19;;;;;;;1.55;1.48;;;;;;;4.90;100.00;97779.81;4992811;28;20383;-73
2021/12/26 18:43:45;;;;;;;1.90;1.80;;;;;;;4.99;100.00;97776.28;4993080;28;20044;-73
2021/12/26 18:46:10;;;;;;;4.03;2.08;;;;;;;4.98;100.00;97788.28;4992523;28;20526;-73
2021/12/26 18:48:36;;;;;;;2.33;2.22;;;;;;;5.07;100.00;97782.16;4992813;28;20029;-73
2021/12/26 18:51:03;;;;;;;2.38;2.17;;;;;;;5.07;100.00;97782.16;4992689;28;20088;-72